createdAt,value
2019-02-16T00:00:46.486Z,99.90
2019-02-16T00:03:15.441Z,99.90
2019-02-16T00:05:44.286Z,99.90
2019-02-16T00:08:13.272Z,99.90
2019-02-16T00:10:45.198Z,99.90
2019-02-16T00:13:14.194Z,99.90
2019-02-16T00:15:43.142Z,99.90
2019-02-16T00:18:13.558Z,99.90
2019-02-16T00:20:42.611Z,99.90
2019-02-16T00:23:11.626Z,99.90
2019-02-16T00:25:40.590Z,99.90
2019-02-16T00:28:09.512Z,99.90
2019-02-16T00:30:41.594Z,99.90
2019-02-16T00:33:10.536Z,99.90
2019-02-16T00:35:39.491Z,99.90
2019-02-16T00:38:08.422Z,99.90
2019-02-16T00:40:37.364Z,99.90
2019-02-16T00:43:06.297Z,99.90
2019-02-16T00:45:35.279Z,99.90
2019-02-16T00:48:07.033Z,99.90
2019-02-16T00:50:36.488Z,99.90
2019-02-16T00:53:05.488Z,99.90
2019-02-16T00:55:35.933Z,99.90
2019-02-16T00:58:06.861Z,99.90
2019-02-16T01:00:35.721Z,99.90
2019-02-16T01:03:04.595Z,99.90
2019-02-16T01:05:33.480Z,99.90
2019-02-16T01:08:02.442Z,99.90
2019-02-16T01:10:31.362Z,99.90
2019-02-16T01:13:03.243Z,99.90
2019-02-16T01:15:32.206Z,99.90
2019-02-16T01:18:01.079Z,99.90
2019-02-16T01:20:30.035Z,99.90
2019-02-16T01:22:58.955Z,99.90
2019-02-16T01:25:27.904Z,99.90
2019-02-16T01:28:03.603Z,99.90
2019-02-16T01:30:32.529Z,99.90
2019-02-16T01:33:01.410Z,99.90
2019-02-16T01:35:30.347Z,99.90
2019-02-16T01:37:59.313Z,99.90
2019-02-16T01:40:29.672Z,99.90
2019-02-16T01:42:58.619Z,99.90
2019-02-16T01:45:27.554Z,99.90
2019-02-16T01:47:56.498Z,99.90
2019-02-16T01:50:26.439Z,99.90
2019-02-16T01:52:55.447Z,99.90
2019-02-16T01:55:25.422Z,99.90
2019-02-16T01:57:54.354Z,99.90
2019-02-16T02:00:23.293Z,99.90
2019-02-16T02:02:52.250Z,99.90
2019-02-16T02:05:22.727Z,99.90
2019-02-16T02:07:51.609Z,99.90
2019-02-16T02:10:20.575Z,99.90
2019-02-16T02:12:49.454Z,99.90
2019-02-16T02:15:18.378Z,99.90
2019-02-16T02:17:47.333Z,99.90
2019-02-16T02:20:16.303Z,99.90
2019-02-16T02:22:45.261Z,99.90
2019-02-16T02:25:14.397Z,99.90
2019-02-16T02:27:43.280Z,99.90
2019-02-16T02:30:12.215Z,99.90
2019-02-16T02:32:41.151Z,99.90
2019-02-16T02:35:10.206Z,99.90
2019-02-16T02:37:39.145Z,99.90
2019-02-16T02:40:08.787Z,99.90
2019-02-16T02:42:37.674Z,99.90
2019-02-16T02:45:09.574Z,99.90
2019-02-16T02:47:38.594Z,99.90
2019-02-16T02:50:07.862Z,99.90
2019-02-16T02:52:36.891Z,99.90
2019-02-16T02:55:08.947Z,99.90
2019-02-16T02:57:38.242Z,99.90
2019-02-16T03:00:09.685Z,99.90
2019-02-16T03:02:38.622Z,99.90
2019-02-16T03:05:11.136Z,99.90
2019-02-16T03:07:40.052Z,99.90
2019-02-16T03:10:08.984Z,99.90
2019-02-16T03:12:37.912Z,99.90
2019-02-16T03:15:07.472Z,99.90
2019-02-16T03:17:36.387Z,99.90
2019-02-16T03:20:08.493Z,99.90
2019-02-16T03:22:58.049Z,99.90
2019-02-16T03:25:27.011Z,99.90
2019-02-16T03:28:04.766Z,99.90
2019-02-16T03:31:00.199Z,99.90
2019-02-16T03:33:32.022Z,99.90
2019-02-16T03:36:21.291Z,99.90
2019-02-16T03:38:56.045Z,99.90
2019-02-16T03:41:25.056Z,99.90
2019-02-16T03:43:54.077Z,99.90
2019-02-16T03:46:22.993Z,99.90
2019-02-16T03:48:52.001Z,99.90
2019-02-16T03:51:21.063Z,99.90
2019-02-16T03:53:49.957Z,99.90
2019-02-16T03:56:20.371Z,99.90
2019-02-16T03:58:49.294Z,99.90
2019-02-16T04:01:18.162Z,99.90
2019-02-16T04:03:47.141Z,99.90
2019-02-16T04:06:16.041Z,99.90
2019-02-16T04:08:45.025Z,99.90
2019-02-16T04:11:14.007Z,99.90
2019-02-16T04:13:42.856Z,99.90
2019-02-16T04:16:11.720Z,99.90
2019-02-16T04:18:40.818Z,99.90
2019-02-16T04:21:09.718Z,99.90
2019-02-16T04:23:38.672Z,99.90
2019-02-16T04:26:10.793Z,99.90
2019-02-16T04:28:39.774Z,99.90
2019-02-16T04:31:08.621Z,99.90
2019-02-16T04:33:37.655Z,99.90
2019-02-16T04:36:06.515Z,99.90
2019-02-16T04:38:35.448Z,99.90
2019-02-16T04:41:04.411Z,99.90
2019-02-16T04:43:34.964Z,99.90
2019-02-16T04:46:03.854Z,99.90
2019-02-16T04:48:35.861Z,99.90
2019-02-16T04:51:04.724Z,99.90
2019-02-16T04:53:36.844Z,99.90
2019-02-16T04:56:05.856Z,99.90
2019-02-16T04:58:35.470Z,99.90
2019-02-16T05:01:04.481Z,99.90
2019-02-16T05:03:33.443Z,99.90
2019-02-16T05:06:02.384Z,99.90
2019-02-16T05:08:31.269Z,99.90
2019-02-16T05:11:00.332Z,99.90
2019-02-16T05:13:29.239Z,99.90
2019-02-16T05:15:58.129Z,99.90
2019-02-16T05:18:27.067Z,99.90
2019-02-16T05:20:55.973Z,99.90
2019-02-16T05:23:24.925Z,99.90
2019-02-16T05:25:53.901Z,99.90
2019-02-16T05:28:22.841Z,99.90
2019-02-16T05:30:51.759Z,99.90
2019-02-16T05:33:21.714Z,99.90
2019-02-16T05:35:50.775Z,99.90
2019-02-16T05:38:19.840Z,99.90
2019-02-16T05:40:49.608Z,99.90
2019-02-16T05:43:18.533Z,99.90
2019-02-16T05:45:47.483Z,99.90
2019-02-16T05:48:16.413Z,99.90
2019-02-16T05:50:45.331Z,99.90
2019-02-16T05:53:15.916Z,99.90
2019-02-16T05:55:44.954Z,99.90
2019-02-16T05:58:16.133Z,99.90
2019-02-16T06:00:45.058Z,99.90
2019-02-16T06:03:14.016Z,99.90
2019-02-16T06:05:43.762Z,99.90
2019-02-16T06:08:12.833Z,99.90
2019-02-16T06:10:41.871Z,99.90
2019-02-16T06:13:13.238Z,99.90
2019-02-16T06:15:43.664Z,99.90
2019-02-16T06:18:15.577Z,99.90
2019-02-16T06:20:44.506Z,99.90
2019-02-16T06:23:15.925Z,99.90
2019-02-16T06:25:44.839Z,99.90
2019-02-16T06:28:13.725Z,99.90
2019-02-16T06:30:42.741Z,99.90
2019-02-16T06:33:11.635Z,99.90
2019-02-16T06:35:42.250Z,99.90
2019-02-16T06:38:11.155Z,99.90
2019-02-16T06:40:42.165Z,99.90
2019-02-16T06:43:11.329Z,99.90
2019-02-16T06:45:40.286Z,99.90
2019-02-16T06:48:10.354Z,99.90
2019-02-16T06:50:39.364Z,99.90
2019-02-16T06:53:13.326Z,99.90
2019-02-16T06:55:40.535Z,99.90
2019-02-16T06:58:09.426Z,99.90
2019-02-16T07:00:41.024Z,99.90
2019-02-16T07:03:10.005Z,99.90
2019-02-16T07:05:38.858Z,99.90
2019-02-16T07:08:09.559Z,99.90
2019-02-16T07:10:38.493Z,99.90
2019-02-16T07:13:07.410Z,99.90
2019-02-16T07:15:37.811Z,99.90
2019-02-16T07:18:23.359Z,99.90
2019-02-16T07:20:52.387Z,99.90
2019-02-16T07:23:22.747Z,99.90
2019-02-16T07:25:51.814Z,99.90
2019-02-16T07:28:20.685Z,99.90
2019-02-16T07:30:49.650Z,99.90
2019-02-16T07:33:18.531Z,99.90
2019-02-16T07:35:49.038Z,99.90
2019-02-16T07:38:18.037Z,99.90
2019-02-16T07:40:53.971Z,99.90
2019-02-16T07:43:40.708Z,99.90
2019-02-16T07:46:13.694Z,99.90
2019-02-16T07:48:47.056Z,99.90
2019-02-16T07:51:21.626Z,99.90
2019-02-16T07:53:52.083Z,99.90
2019-02-16T07:56:22.578Z,99.90
2019-02-16T07:58:56.194Z,99.90
2019-02-16T08:01:26.606Z,99.90
2019-02-16T08:03:57.120Z,99.90
2019-02-16T08:06:27.655Z,99.90
2019-02-16T08:08:58.156Z,99.90
2019-02-16T08:11:37.498Z,99.90
2019-02-16T08:14:13.936Z,99.90
2019-02-16T08:16:50.192Z,99.90
2019-02-16T08:19:23.298Z,99.90
2019-02-16T08:21:53.717Z,99.90
2019-02-16T08:24:24.342Z,99.90
2019-02-16T08:26:57.526Z,99.90
2019-02-16T08:29:44.028Z,99.90
2019-02-16T08:32:17.633Z,99.90
2019-02-16T08:34:59.474Z,99.90
2019-02-16T08:37:48.649Z,99.90
2019-02-16T08:40:24.802Z,99.90
2019-02-16T08:42:58.383Z,99.90
2019-02-16T08:45:44.752Z,99.90
2019-02-16T08:48:24.211Z,99.90
2019-02-16T08:50:54.694Z,99.90
2019-02-16T08:53:28.022Z,98.00
2019-02-16T08:56:09.399Z,73.50
2019-02-16T08:58:39.879Z,50.90
2019-02-16T09:01:27.572Z,39.80
2019-02-16T09:04:00.746Z,34.20
2019-02-16T09:06:35.604Z,29.70
2019-02-16T09:09:18.733Z,28.10
2019-02-16T09:12:08.880Z,26.40
2019-02-16T09:14:51.271Z,24.70
2019-02-16T09:17:23.294Z,22.50
2019-02-16T09:20:09.763Z,22.00
2019-02-16T09:22:43.122Z,20.70
2019-02-16T09:25:13.690Z,20.00
2019-02-16T09:28:00.260Z,19.30
2019-02-16T09:30:33.409Z,18.50
2019-02-16T09:33:07.726Z,18.40
2019-02-16T09:35:38.216Z,17.80
2019-02-16T09:38:14.750Z,17.60
2019-02-16T09:40:45.302Z,17.10
2019-02-16T09:43:21.559Z,17.30
2019-02-16T09:45:54.873Z,16.40
2019-02-16T09:48:25.398Z,16.30
2019-02-16T09:50:58.699Z,15.50
2019-02-16T09:53:32.307Z,15.30
2019-02-16T09:56:08.869Z,14.70
2019-02-16T09:58:42.403Z,14.90
2019-02-16T10:01:27.996Z,14.80
2019-02-16T10:03:58.543Z,14.20
2019-02-16T10:06:38.144Z,14.20
2019-02-16T10:09:23.945Z,14.30
2019-02-16T10:11:57.501Z,13.60
2019-02-16T10:14:31.161Z,13.60
2019-02-16T10:17:10.387Z,12.90
2019-02-16T10:19:52.956Z,13.30
2019-02-16T10:22:25.207Z,12.30
2019-02-16T10:24:57.212Z,12.60
2019-02-16T10:27:27.700Z,12.70
2019-02-16T10:29:58.248Z,13.10
2019-02-16T10:32:34.210Z,12.70
2019-02-16T10:35:16.600Z,12.60
2019-02-16T10:38:03.382Z,12.10
2019-02-16T10:40:50.035Z,11.40
2019-02-16T10:43:42.948Z,11.80
2019-02-16T10:46:25.293Z,11.90
2019-02-16T10:48:55.806Z,11.10
2019-02-16T10:51:35.343Z,11.40
2019-02-16T10:54:08.543Z,11.40
2019-02-16T10:56:41.655Z,11.10
2019-02-16T10:59:28.014Z,11.30
2019-02-16T11:02:10.265Z,10.90
2019-02-16T11:04:56.854Z,10.50
2019-02-16T11:07:27.669Z,10.80
2019-02-16T11:10:03.788Z,11.00
2019-02-16T11:12:34.345Z,10.80
2019-02-16T11:15:15.554Z,10.30
2019-02-16T11:17:46.089Z,10.20
2019-02-16T11:20:41.306Z,10.50
2019-02-16T11:23:17.738Z,10.30
2019-02-16T11:26:02.878Z,10.10
2019-02-16T11:28:36.276Z,10.20
2019-02-16T11:31:06.762Z,9.90
2019-02-16T11:33:42.920Z,9.40
2019-02-16T11:36:13.422Z,9.50
2019-02-16T11:38:46.401Z,10.00
2019-02-16T11:41:25.796Z,9.90
2019-02-16T11:44:07.435Z,9.80
2019-02-16T11:46:58.824Z,9.30
2019-02-16T11:49:47.105Z,9.40
2019-02-16T11:52:27.606Z,9.60
2019-02-16T11:54:58.150Z,9.20
2019-02-16T11:57:28.708Z,9.00
2019-02-16T12:00:01.789Z,9.50
2019-02-16T12:02:40.154Z,9.60
2019-02-16T12:05:10.702Z,9.80
2019-02-16T12:07:41.300Z,11.20
2019-02-16T12:10:12.017Z,12.30
2019-02-16T12:12:45.063Z,12.20
2019-02-16T12:15:18.531Z,13.80
2019-02-16T12:17:54.786Z,16.60
2019-02-16T12:20:33.346Z,18.30
2019-02-16T12:23:00.332Z,19.30
2019-02-16T12:25:39.426Z,21.30
2019-02-16T12:28:21.757Z,21.40
2019-02-16T12:30:59.240Z,21.00
2019-02-16T12:33:29.769Z,21.70
2019-02-16T12:36:16.315Z,21.50
2019-02-16T12:39:04.784Z,22.20
2019-02-16T12:41:48.043Z,21.50
2019-02-16T12:44:19.848Z,22.70
2019-02-16T12:46:52.976Z,22.30
2019-02-16T12:49:26.404Z,22.30
2019-02-16T12:51:56.836Z,22.50
2019-02-16T12:54:45.420Z,23.80
2019-02-16T12:57:15.957Z,25.20
2019-02-16T12:59:46.540Z,25.10
2019-02-16T13:02:28.957Z,25.30
2019-02-16T13:05:02.275Z,25.80
2019-02-16T13:07:39.838Z,25.40
2019-02-16T13:10:19.140Z,24.70
2019-02-16T13:12:52.178Z,23.30
2019-02-16T13:15:25.633Z,23.00
2019-02-16T13:18:05.078Z,23.00
2019-02-16T13:20:35.552Z,22.60
2019-02-16T13:23:08.883Z,22.70
2019-02-16T13:25:52.517Z,21.90
2019-02-16T13:28:39.387Z,22.30
2019-02-16T13:31:09.801Z,23.00
2019-02-16T13:33:43.521Z,22.90
2019-02-16T13:36:15.455Z,22.40
2019-02-16T13:38:48.803Z,22.80
2019-02-16T13:41:19.477Z,22.40
2019-02-16T13:43:52.916Z,22.80
2019-02-16T13:46:32.489Z,22.30
2019-02-16T13:49:05.710Z,22.00
2019-02-16T13:51:36.214Z,22.60
2019-02-16T13:54:12.166Z,22.50
2019-02-16T13:56:48.043Z,22.70
2019-02-16T13:59:30.453Z,23.30
2019-02-16T14:02:01.011Z,23.30
2019-02-16T14:04:40.540Z,23.80
2019-02-16T14:07:25.910Z,24.10
2019-02-16T14:09:59.183Z,24.40
2019-02-16T14:12:29.615Z,24.40
2019-02-16T14:15:00.272Z,25.20
2019-02-16T14:17:30.948Z,24.70
2019-02-16T14:19:59.925Z,25.40
2019-02-16T14:22:31.604Z,25.40
2019-02-16T14:25:00.967Z,25.40
2019-02-16T14:27:29.874Z,24.80
2019-02-16T14:29:58.809Z,25.40
2019-02-16T14:32:27.893Z,25.60
2019-02-16T14:34:56.760Z,25.80
2019-02-16T14:37:35.840Z,25.90
2019-02-16T14:40:05.838Z,26.70
2019-02-16T14:42:36.473Z,27.20
2019-02-16T14:45:08.290Z,26.00
2019-02-16T14:47:37.265Z,26.30
2019-02-16T14:50:08.390Z,26.70
2019-02-16T14:52:37.417Z,25.20
2019-02-16T14:55:16.149Z,24.60
2019-02-16T14:57:46.340Z,24.10
2019-02-16T15:00:15.311Z,24.60
2019-02-16T15:02:44.218Z,24.20
2019-02-16T15:05:13.492Z,24.10
2019-02-16T15:07:42.489Z,23.90
2019-02-16T15:10:15.845Z,24.70
2019-02-16T15:12:46.142Z,24.70
2019-02-16T15:15:15.312Z,23.70
2019-02-16T15:17:47.063Z,24.30
2019-02-16T15:20:19.965Z,24.10
2019-02-16T15:22:50.881Z,23.50
2019-02-16T15:25:19.514Z,23.80
2019-02-16T15:27:48.658Z,23.30
2019-02-16T15:30:22.213Z,22.90
2019-02-16T15:32:51.220Z,22.90
2019-02-16T15:35:20.676Z,23.70
2019-02-16T15:37:49.809Z,23.90
2019-02-16T15:40:21.733Z,24.20
2019-02-16T15:42:50.855Z,25.50
2019-02-16T15:45:22.876Z,26.40
2019-02-16T15:47:51.796Z,27.50
2019-02-16T15:50:20.747Z,27.40
2019-02-16T15:52:49.853Z,28.30
2019-02-16T15:55:18.936Z,29.10
2019-02-16T15:57:50.860Z,29.50
2019-02-16T16:00:24.382Z,29.90
2019-02-16T16:02:53.535Z,30.60
2019-02-16T16:05:22.478Z,31.30
2019-02-16T16:07:53.057Z,32.00
2019-02-16T16:10:23.598Z,32.30
2019-02-16T16:13:02.893Z,33.00
2019-02-16T16:15:42.313Z,33.30
2019-02-16T16:18:14.113Z,33.70
2019-02-16T16:20:51.780Z,34.60
2019-02-16T16:23:23.955Z,34.90
2019-02-16T16:26:18.816Z,36.30
2019-02-16T16:28:49.014Z,37.00
2019-02-16T16:31:22.232Z,38.80
2019-02-16T16:34:07.310Z,39.30
2019-02-16T16:36:43.683Z,40.00
2019-02-16T16:39:23.121Z,41.50
2019-02-16T16:41:53.636Z,41.40
2019-02-16T16:44:26.945Z,43.80
2019-02-16T16:47:06.682Z,45.00
2019-02-16T16:49:42.916Z,45.70
2019-02-16T16:52:29.850Z,47.70
2019-02-16T16:55:03.003Z,49.70
2019-02-16T16:57:36.545Z,52.20
2019-02-16T17:00:07.792Z,53.90
2019-02-16T17:02:38.365Z,56.50
2019-02-16T17:05:15.640Z,59.80
2019-02-16T17:08:02.009Z,63.90
2019-02-16T17:10:38.529Z,67.70
2019-02-16T17:13:26.986Z,70.80
2019-02-16T17:16:09.248Z,75.00
2019-02-16T17:18:55.757Z,78.30
2019-02-16T17:21:44.304Z,81.80
2019-02-16T17:24:29.491Z,84.60
2019-02-16T17:27:02.584Z,87.70
2019-02-16T17:29:35.707Z,90.60
2019-02-16T17:32:22.103Z,91.80
2019-02-16T17:34:55.345Z,92.70
2019-02-16T17:37:25.925Z,93.20
2019-02-16T17:39:58.075Z,93.50
2019-02-16T17:42:28.514Z,93.70
2019-02-16T17:45:14.770Z,93.70
2019-02-16T17:47:53.955Z,92.70
2019-02-16T17:50:36.412Z,92.10
2019-02-16T17:53:23.108Z,93.60
2019-02-16T17:55:53.564Z,94.60
2019-02-16T17:58:28.140Z,96.00
2019-02-16T18:01:04.656Z,96.50
2019-02-16T18:03:44.018Z,96.70
2019-02-16T18:06:17.427Z,97.20
2019-02-16T18:09:07.431Z,97.30
2019-02-16T18:11:41.044Z,97.50
2019-02-16T18:14:14.477Z,97.20
2019-02-16T18:16:59.614Z,97.10
2019-02-16T18:19:32.967Z,97.50
2019-02-16T18:22:04.984Z,97.90
2019-02-16T18:24:51.570Z,98.30
2019-02-16T18:27:22.076Z,98.40
2019-02-16T18:30:10.633Z,97.90
2019-02-16T18:32:41.109Z,97.70
2019-02-16T18:35:23.769Z,98.30
2019-02-16T18:38:01.351Z,98.80
2019-02-16T18:40:31.829Z,99.10
2019-02-16T18:43:11.276Z,99.40
2019-02-16T18:45:50.594Z,99.60
2019-02-16T18:48:26.930Z,99.70
2019-02-16T18:51:09.252Z,99.80
2019-02-16T18:53:39.758Z,99.90
2019-02-16T18:56:12.814Z,99.90
2019-02-16T18:58:59.592Z,99.90
2019-02-16T19:01:48.049Z,99.90
2019-02-16T19:04:21.252Z,99.90
2019-02-16T19:06:54.681Z,99.90
2019-02-16T19:09:28.110Z,99.90
2019-02-16T19:11:58.648Z,99.90
2019-02-16T19:14:37.828Z,99.90
2019-02-16T19:17:08.373Z,99.90
2019-02-16T19:19:56.159Z,99.90
2019-02-16T19:22:26.614Z,99.90
2019-02-16T19:25:02.789Z,99.90
2019-02-16T19:27:42.373Z,99.90
2019-02-16T19:30:12.813Z,99.90
2019-02-16T19:32:51.778Z,99.90
2019-02-16T19:35:22.926Z,99.90
2019-02-16T19:38:00.492Z,99.90
2019-02-16T19:40:34.120Z,99.90
2019-02-16T19:43:16.695Z,99.90
2019-02-16T19:45:50.015Z,99.90
2019-02-16T19:48:29.369Z,99.90
2019-02-16T19:51:14.899Z,99.90
2019-02-16T19:53:45.340Z,99.90
2019-02-16T19:56:21.536Z,99.90
2019-02-16T19:58:57.717Z,99.90
2019-02-16T20:01:44.376Z,99.90
2019-02-16T20:04:17.574Z,99.90
2019-02-16T20:06:50.793Z,99.90
2019-02-16T20:09:27.209Z,99.90
2019-02-16T20:12:06.484Z,99.90
2019-02-16T20:14:36.948Z,99.90
2019-02-16T20:17:07.484Z,99.90
2019-02-16T20:20:00.419Z,99.90
2019-02-16T20:22:33.855Z,99.90
2019-02-16T20:25:06.724Z,99.90
2019-02-16T20:27:53.599Z,99.90
2019-02-16T20:30:24.166Z,99.90
2019-02-16T20:33:10.676Z,99.90
2019-02-16T20:35:41.182Z,99.90
2019-02-16T20:38:20.567Z,99.90
2019-02-16T20:40:56.938Z,99.90
2019-02-16T20:43:36.342Z,99.90
2019-02-16T20:46:06.801Z,99.90
2019-02-16T20:48:49.566Z,99.90
2019-02-16T20:51:19.996Z,99.90
2019-02-16T20:54:08.473Z,99.90
2019-02-16T20:56:38.965Z,99.90
2019-02-16T20:59:18.028Z,99.90
2019-02-16T21:01:48.531Z,99.90
2019-02-16T21:04:24.595Z,99.90
2019-02-16T21:06:57.663Z,99.90
2019-02-16T21:09:33.739Z,99.90
2019-02-16T21:12:04.262Z,99.90
2019-02-16T21:14:43.413Z,99.90
2019-02-16T21:17:26.132Z,99.90
2019-02-16T21:20:05.334Z,99.90
2019-02-16T21:22:35.816Z,99.90
2019-02-16T21:25:18.905Z,99.90
2019-02-16T21:27:57.855Z,99.90
2019-02-16T21:30:27.216Z,99.90
2019-02-16T21:32:57.770Z,99.90
2019-02-16T21:35:34.184Z,99.90
2019-02-16T21:38:23.212Z,99.90
2019-02-16T21:41:02.556Z,99.90
2019-02-16T21:43:35.777Z,99.90
2019-02-16T21:46:09.113Z,99.90
2019-02-16T21:48:45.627Z,99.90
2019-02-16T21:51:24.992Z,99.90
2019-02-16T21:53:55.465Z,99.90
2019-02-16T21:56:37.896Z,99.90
2019-02-16T21:59:19.105Z,99.90
2019-02-16T22:02:01.989Z,99.90
2019-02-16T22:04:35.074Z,99.90
2019-02-16T22:07:05.664Z,99.90
2019-02-16T22:09:52.090Z,99.90
2019-02-16T22:12:22.628Z,99.90
2019-02-16T22:14:51.607Z,99.90
2019-02-16T22:17:22.096Z,99.90
2019-02-16T22:19:51.040Z,99.90
2019-02-16T22:22:19.999Z,99.90
2019-02-16T22:24:48.915Z,99.90
2019-02-16T22:27:17.796Z,99.90
2019-02-16T22:29:46.765Z,99.90
2019-02-16T22:32:15.743Z,99.90
2019-02-16T22:34:44.650Z,99.90
2019-02-16T22:37:13.601Z,99.90
2019-02-16T22:39:42.523Z,99.90
2019-02-16T22:42:12.927Z,99.90
2019-02-16T22:44:41.888Z,99.90
2019-02-16T22:47:10.790Z,99.90
2019-02-16T22:49:41.348Z,99.90
2019-02-16T22:52:10.353Z,99.90
2019-02-16T22:54:39.305Z,99.90
2019-02-16T22:57:08.252Z,99.90
2019-02-16T22:59:39.757Z,99.90
2019-02-16T23:02:08.852Z,99.90
2019-02-16T23:04:37.753Z,99.90
2019-02-16T23:07:06.653Z,99.90
2019-02-16T23:09:35.591Z,99.90
2019-02-16T23:12:06.736Z,99.90
2019-02-16T23:14:35.683Z,99.90
2019-02-16T23:17:04.753Z,99.90
2019-02-16T23:19:33.626Z,99.90
2019-02-16T23:22:02.589Z,99.90
2019-02-16T23:24:31.519Z,99.90
2019-02-16T23:27:00.469Z,99.90
2019-02-16T23:29:29.551Z,99.90
2019-02-16T23:31:58.503Z,99.90
2019-02-16T23:34:27.418Z,99.90
2019-02-16T23:36:56.315Z,99.90
2019-02-16T23:39:25.513Z,99.90
2019-02-16T23:41:54.433Z,99.90
2019-02-16T23:44:24.787Z,99.90
2019-02-16T23:46:53.727Z,99.90
2019-02-16T23:49:22.837Z,99.90
2019-02-16T23:51:51.856Z,99.90
2019-02-16T23:54:20.747Z,99.90
2019-02-16T23:56:49.657Z,99.90
2019-02-16T23:59:18.627Z,99.90
